North Crossroads, Mississippi
Current Conditions -  °F | °C
As of 1:55 AM on Sunday 26 Oct 2014 (Local Time) from KCRX Reporting Station
Moderate Fog Moderate Fog  
Wind Chill: 57°   Ceiling: 100
Heat Index: 57°   Visibility: 0.25mi
Dew Point: 55°   Wind: 0mph
Humidity: 94%   Direction: NA
Pressure: 30.02"   Gusts: NA
Location:  34.8106°N, 88.1999°W
Report Text: KCRX 260655Z AUTO 00000KT 1/4SM FG OVC001 14/13 A3002 RMK AO2
Loading
Personal Weather Stations






























Interactive Weather Map
Tropical Storm Tracking
New forecast layout! Learn more

10-Day Weather Forecast

Advertisements
Track Severe Weather on mobile